Have a Safe July 4th! 

Flight Track Log - Related Links

Times and Time Zones

All times are in EDT time to prevent confusion due to time zone crossing. See the SBS4537 flight status page for this flight to view local times or setup timezone preferences in your user account.

Time Position Orientation Groundspeed Altitude Reporting Facility
EDT Latitude Longitude Course Direction KTS MPH feet Rate Location/Type
Sat 11:58:53 AM 18.5167 -65.1833 251° West 180 207 1,900  Level San Juan Center
Sat 11:59:53 AM 18.5000 -65.2333 251° West 150 173 2,600 650 Climbing San Juan Center
Sat 12:00:53 PM 18.5000 -65.2667 270° West 140 161 3,200 545 Climbing San Juan Center
Sat 12:01:54 PM 18.5000 -65.3167 270° West 140 161 3,700 397 Climbing San Juan Center
Sat 12:02:54 PM 18.5000 -65.3667 270° West 160 184 4,000 150 Climbing San Juan Center
Sat 12:03:54 PM 18.5000 -65.4167 270° West 180 207 4,000  Level San Juan Center
Sat 12:04:55 PM 18.4833 -65.4667 251° West 180 207 4,000  Level San Juan Center
Sat 12:05:55 PM 18.4833 -65.5167 270° West 180 207 4,000 50 Level San Juan Center
Sat 12:06:55 PM 18.4833 -65.5667 270° West 180 207 4,100  Climbing San Juan Center
Sat 12:07:56 PM 18.4667 -65.6167 251° West 180 207 4,000  Descending San Juan Center
Sat 12:08:56 PM 18.4500 -65.6667 251° West 180 207 4,100 50 Climbing San Juan Center
Sat 12:09:56 PM 18.4333 -65.7167 251° West 170 196 4,100  Level San Juan Center
Sat 12:10:57 PM 18.4167 -65.7667 251° West 180 207 4,100  Level San Juan Center
Sat 12:11:57 PM 18.4000 -65.8167 251° West 180 207 4,100  Level San Juan Center
Sat 12:12:57 PM 18.4000 -65.8667 270° West 180 207 4,100 -250 Level San Juan Center
Sat 12:13:57 PM 18.3833 -65.9167 251° West 160 184 3,600 -545 Descending San Juan Center
Sat 12:14:58 PM 18.3667 -65.9667 251° West 160 184 3,000 -545 Descending San Juan Center
Sat 12:15:58 PM 18.3667 -66.0167 270° West 160 184 2,500 -600 Descending San Juan Center
Sat 12:16:58 PM 18.3833 -66.0500 298° West 130 150 1,800 -694 Descending San Juan Center
Sat 12:17:59 PM 18.4167 -66.0500 360° North 90 104 1,100 -595 Descending San Juan Center
Sat 12:18:59 PM 18.4333 -66.0333 43° Northeast 70 81 600 -500 Descending San Juan Center
Sat 12:20:00 PM 18.4393 -66.0020 90° East  Level Estimated

Login

Don't have an account? Register now (free) for customized features, flight alerts, and more!